Weezie Cenac — WDH3888 — position and weather

sailwx.info

Track history (hours):
 
Tides and Currents Weather Stations Pressure Air Temp Water Temp Dewpoint Dewpoint Depression Visibility Wind Speed Wind Dir Waves Ship Positions

Weezie Cenac

Owner: Cenac Marine Services, Houma, LA. More information available from US FCC via Universal Licensing System and Coast Guard Vessel Documentation Center.

Last reported at 2017-Nov-10 18:34 UTC. Time now 2017-Nov-19 18:11 UTC.
Position N 29°32' W 094°54'.
Warning: this ship's position is 8 days out of date.

Length 22 m; draft 1.7 m.

Type: Tug. MMSI: 367611960.

Date/timePositionNaut miles runAvg speedWind from/ knotsBaromVisibWave heightAir tempDewpointWater temp
2017-Nov-10 18:34N 29°32' W 094°54'1 7.8
2017-Nov-10 18:29N 29°32' W 094°54'4 7.8
2017-Nov-10 18:00N 29°36' W 094°57'3 6.5
2017-Nov-10 17:30N 29°37' W 094°60'1 2.6
2017-Nov-10 17:00N 29°37' W 095°01'0 0.1
2017-Nov-10 15:58N 29°37' W 095°02'0 0.0
2017-Nov-10 15:13N 29°37' W 095°02'0 0.0
2017-Nov-10 14:49N 29°37' W 095°02'0 0.0
2017-Nov-10 14:25N 29°37' W 095°02'0 0.0
2017-Nov-10 13:49N 29°37' W 095°02'0 0.0
2017-Nov-10 13:19N 29°37' W 095°02'0 0.0
2017-Nov-10 12:55N 29°37' W 095°02'0 0.0
2017-Nov-10 12:25N 29°37' W 095°02'0 0.0
2017-Nov-10 11:55N 29°37' W 095°02'0 0.0
2017-Nov-10 11:25N 29°37' W 095°02'0 0.1
2017-Nov-10 11:00N 29°37' W 095°02'0 0.0
2017-Nov-10 10:18N 29°37' W 095°02'0 0.0
2017-Nov-10 10:00N 29°37' W 095°02'0 0.0
2017-Nov-10 09:30N 29°37' W 095°02'0 0.0
2017-Nov-10 08:57N 29°37' W 095°02'0 0.0
2017-Nov-10 08:30N 29°37' W 095°02'0 0.0
2017-Nov-10 08:00N 29°37' W 095°02'0 0.0
2017-Nov-10 07:30N 29°37' W 095°02'0 0.0
2017-Nov-10 06:57N 29°37' W 095°02'0 0.0
2017-Nov-10 06:24N 29°37' W 095°02'0 0.0
2017-Nov-10 05:54N 29°37' W 095°02'0 0.0
2017-Nov-10 05:30N 29°37' W 095°02'0 0.0
2017-Nov-10 03:18N 29°37' W 095°02'0 0.0
2017-Nov-10 01:16N 29°37' W 095°02'0 0.2
2017-Nov-10 00:59N 29°37' W 095°02'0 0.0
2017-Nov-10 00:29N 29°37' W 095°02'0 0.0
2017-Nov-09 23:59N 29°37' W 095°02'0 0.0
2017-Nov-09 23:29N 29°37' W 095°02'0 0.0
2017-Nov-09 22:59N 29°37' W 095°02'0 0.0
2017-Nov-09 22:29N 29°37' W 095°02'0 0.0
2017-Nov-09 21:59N 29°37' W 095°02'0 0.0
2017-Nov-09 21:29N 29°37' W 095°02'0 0.0
2017-Nov-09 20:53N 29°37' W 095°02'0 0.0
2017-Nov-09 20:29N 29°37' W 095°02'1 2.8
2017-Nov-09 20:00N 29°37' W 095°00'2 4.4
2017-Nov-09 19:30N 29°37' W 094°58'3 5.6
2017-Nov-09 19:00N 29°40' W 094°59'3 5.8
2017-Nov-09 18:27N 29°42' W 095°01'  
2017-Nov-03 22:08N 29°46' W 095°04'1 6.2
2017-Nov-03 21:59N 29°45' W 095°04'3 6.4
2017-Nov-03 21:30N 29°43' W 095°01'3 6.7
2017-Nov-03 21:00N 29°40' W 094°59'4 7.1
2017-Nov-03 20:30N 29°37' W 094°57'4 6.9
2017-Nov-03 20:00N 29°34' W 094°55'  
Track history (hours):
 
Tides and Currents Weather Stations Pressure Air Temp Water Temp Dewpoint Dewpoint Depression Visibility Wind Speed Wind Dir Waves Ship Positions

Weezie Cenac

Owner: Cenac Marine Services, Houma, LA. More information available from US FCC via Universal Licensing System and Coast Guard Vessel Documentation Center.

Last reported at 2017-Nov-10 18:34 UTC. Time now 2017-Nov-19 18:11 UTC.
Position N 29°32' W 094°54'.
Warning: this ship's position is 8 days out of date.

Length 22 m; draft 1.7 m.

Type: Tug. MMSI: 367611960.

Date/timePositionNaut miles runAvg speedWind from/ knotsBaromVisibWave heightAir tempDewpointWater temp
2017-Nov-10 18:34N 29°32' W 094°54'1 7.8
2017-Nov-10 18:29N 29°32' W 094°54'4 7.8
2017-Nov-10 18:00N 29°36' W 094°57'3 6.5
2017-Nov-10 17:30N 29°37' W 094°60'1 2.6
2017-Nov-10 17:00N 29°37' W 095°01'0 0.1
2017-Nov-10 15:58N 29°37' W 095°02'0 0.0
2017-Nov-10 15:13N 29°37' W 095°02'0 0.0
2017-Nov-10 14:49N 29°37' W 095°02'0 0.0
2017-Nov-10 14:25N 29°37' W 095°02'0 0.0
2017-Nov-10 13:49N 29°37' W 095°02'0 0.0
2017-Nov-10 13:19N 29°37' W 095°02'0 0.0
2017-Nov-10 12:55N 29°37' W 095°02'0 0.0
2017-Nov-10 12:25N 29°37' W 095°02'0 0.0
2017-Nov-10 11:55N 29°37' W 095°02'0 0.0
2017-Nov-10 11:25N 29°37' W 095°02'0 0.1
2017-Nov-10 11:00N 29°37' W 095°02'0 0.0
2017-Nov-10 10:18N 29°37' W 095°02'0 0.0
2017-Nov-10 10:00N 29°37' W 095°02'0 0.0
2017-Nov-10 09:30N 29°37' W 095°02'0 0.0
2017-Nov-10 08:57N 29°37' W 095°02'0 0.0
2017-Nov-10 08:30N 29°37' W 095°02'0 0.0
2017-Nov-10 08:00N 29°37' W 095°02'0 0.0
2017-Nov-10 07:30N 29°37' W 095°02'0 0.0
2017-Nov-10 06:57N 29°37' W 095°02'0 0.0
2017-Nov-10 06:24N 29°37' W 095°02'0 0.0
2017-Nov-10 05:54N 29°37' W 095°02'0 0.0
2017-Nov-10 05:30N 29°37' W 095°02'0 0.0
2017-Nov-10 03:18N 29°37' W 095°02'0 0.0
2017-Nov-10 01:16N 29°37' W 095°02'0 0.2
2017-Nov-10 00:59N 29°37' W 095°02'0 0.0
2017-Nov-10 00:29N 29°37' W 095°02'0 0.0
2017-Nov-09 23:59N 29°37' W 095°02'0 0.0
2017-Nov-09 23:29N 29°37' W 095°02'0 0.0
2017-Nov-09 22:59N 29°37' W 095°02'0 0.0
2017-Nov-09 22:29N 29°37' W 095°02'0 0.0
2017-Nov-09 21:59N 29°37' W 095°02'0 0.0
2017-Nov-09 21:29N 29°37' W 095°02'0 0.0
2017-Nov-09 20:53N 29°37' W 095°02'0 0.0
2017-Nov-09 20:29N 29°37' W 095°02'1 2.8
2017-Nov-09 20:00N 29°37' W 095°00'2 4.4
2017-Nov-09 19:30N 29°37' W 094°58'3 5.6
2017-Nov-09 19:00N 29°40' W 094°59'3 5.8
2017-Nov-09 18:27N 29°42' W 095°01'  
2017-Nov-03 22:08N 29°46' W 095°04'1 6.2
2017-Nov-03 21:59N 29°45' W 095°04'3 6.4
2017-Nov-03 21:30N 29°43' W 095°01'3 6.7
2017-Nov-03 21:00N 29°40' W 094°59'4 7.1
2017-Nov-03 20:30N 29°37' W 094°57'4 6.9
2017-Nov-03 20:00N 29°34' W 094°55'  

Dump ship's entire track history